Time;durP1;ratioP1;P1;durP2;ratioP2;P2;SDS_P1;SDS_P2;PMS_P1;PMS_P2;Temp;Humidity;BMP_temperature;BMP_pressure;BME280_temperature;BME280_humidity;BME280_pressure;Samples;Min_cycle;Max_cycle;Signal;HPM_P1;HPM_P2
2022/05/02 00:00:44;;;;;;;5.17;4.80;;;9.40;99.90;;;;;;5090610;28;20273;-45
2022/05/02 00:03:11;;;;;;;6.57;5.13;;;9.40;99.90;;;;;;5081203;22;20234;-52
2022/05/02 00:05:39;;;;;;;4.47;4.17;;;9.40;99.90;;;;;;5051554;28;20756;-52
2022/05/02 00:08:08;;;;;;;5.80;5.40;;;9.40;99.90;;;;;;5059830;28;20223;-52
2022/05/02 00:10:35;;;;;;;6.20;5.70;;;9.40;99.90;;;;;;5068279;28;20265;-52
2022/05/02 00:13:02;;;;;;;5.50;5.10;;;9.40;99.90;;;;;;5070063;28;20270;-52
2022/05/02 00:15:31;;;;;;;5.53;5.10;;;9.40;99.90;;;;;;5051454;28;20243;-52
2022/05/02 00:17:58;;;;;;;5.93;5.50;;;9.40;99.90;;;;;;5049863;28;20201;-53
2022/05/02 00:20:27;;;;;;;5.43;5.13;;;9.30;99.90;;;;;;5043821;28;20255;-52
2022/05/02 00:22:54;;;;;;;6.33;5.83;;;9.30;99.90;;;;;;5052009;28;20714;-52
2022/05/02 00:25:22;;;;;;;5.03;4.70;;;9.30;99.90;;;;;;5049522;28;20673;-52
2022/05/02 00:27:50;;;;;;;5.40;5.10;;;9.30;99.90;;;;;;5051870;28;20250;-52
2022/05/02 00:30:17;;;;;;;5.67;5.33;;;9.20;99.90;;;;;;5071218;28;20203;-52
2022/05/02 00:32:45;;;;;;;5.83;5.43;;;9.20;99.90;;;;;;5054132;28;20228;-53
2022/05/02 00:35:12;;;;;;;5.87;5.43;;;9.20;99.90;;;;;;5044416;28;20877;-52
2022/05/02 00:37:40;;;;;;;5.00;4.70;;;9.10;99.90;;;;;;5050132;28;20322;-52
2022/05/02 00:40:09;;;;;;;4.73;4.33;;;9.10;99.90;;;;;;5058435;28;20261;-52
2022/05/02 00:42:38;;;;;;;6.37;5.87;;;9.00;99.90;;;;;;5050849;28;20215;-52
2022/05/02 00:45:07;;;;;;;5.70;5.30;;;8.90;99.90;;;;;;5050256;28;20248;-52
2022/05/02 00:47:34;;;;;;;6.33;5.73;;;8.80;99.90;;;;;;5048314;28;20306;-52
2022/05/02 00:50:03;;;;;;;6.57;6.03;;;8.80;99.90;;;;;;5050048;28;20292;-52
2022/05/02 00:52:30;;;;;;;5.90;5.40;;;8.80;99.90;;;;;;5056253;28;20223;-52
2022/05/02 00:54:57;;;;;;;6.27;5.83;;;8.80;99.90;;;;;;5052899;28;20200;-52
2022/05/02 00:57:24;;;;;;;5.97;5.53;;;8.80;99.90;;;;;;5051216;28;20855;-52
2022/05/02 00:59:52;;;;;;;5.10;4.70;;;8.80;99.90;;;;;;5051085;28;20202;-52
2022/05/02 01:02:19;;;;;;;5.37;4.97;;;8.70;99.90;;;;;;5049575;28;20287;-52
2022/05/02 01:04:47;;;;;;;8.97;6.97;;;8.70;99.90;;;;;;5048242;28;20699;-52
2022/05/02 01:07:18;;;;;;;6.00;5.50;;;8.60;99.90;;;;;;5050271;28;20627;-53
2022/05/02 01:09:48;;;;;;;5.93;5.57;;;8.60;99.90;;;;;;5050845;28;20194;-52
2022/05/02 01:12:17;;;;;;;7.27;6.73;;;8.50;99.90;;;;;;5050531;28;20269;-52
2022/05/02 01:14:46;;;;;;;7.63;6.93;;;8.60;99.90;;;;;;5051062;28;20229;-52
2022/05/02 01:17:15;;;;;;;6.90;6.40;;;8.60;99.90;;;;;;5049767;28;20251;-52
2022/05/02 01:19:43;;;;;;;6.50;5.90;;;8.50;99.90;;;;;;5050269;28;20205;-52
2022/05/02 01:22:11;;;;;;;7.87;7.27;;;8.50;99.90;;;;;;5049753;28;20245;-52
2022/05/02 01:24:41;;;;;;;6.97;6.40;;;8.50;99.90;;;;;;5049878;28;20208;-52
2022/05/02 01:27:10;;;;;;;6.13;5.73;;;8.50;99.90;;;;;;5052394;28;20254;-52
2022/05/02 01:29:40;;;;;;;6.33;5.83;;;8.40;99.90;;;;;;5048849;28;20265;-52
2022/05/02 01:32:10;;;;;;;6.13;5.70;;;8.40;99.90;;;;;;5050104;28;20732;-53
2022/05/02 01:34:40;;;;;;;5.93;5.43;;;8.40;99.90;;;;;;5050603;28;20658;-52
2022/05/02 01:37:07;;;;;;;5.70;5.27;;;8.40;99.90;;;;;;5049424;28;20246;-53
2022/05/02 01:39:36;;;;;;;5.27;4.87;;;8.40;99.90;;;;;;5050530;28;20664;-52
2022/05/02 01:42:05;;;;;;;5.77;5.37;;;8.40;99.90;;;;;;5047890;28;20254;-53
2022/05/02 01:44:33;;;;;;;5.10;4.77;;;8.40;99.90;;;;;;5062249;28;20200;-52
2022/05/02 01:47:00;;;;;;;5.33;4.93;;;8.40;99.90;;;;;;5054074;28;20209;-53
2022/05/02 01:49:27;;;;;;;5.50;5.10;;;8.40;99.90;;;;;;5054171;28;20285;-52
2022/05/02 01:51:54;;;;;;;5.70;5.30;;;8.40;99.90;;;;;;5054849;28;20227;-53
2022/05/02 01:54:21;;;;;;;5.13;4.80;;;8.40;99.90;;;;;;5051833;28;20286;-53
2022/05/02 01:56:50;;;;;;;5.40;5.03;;;8.30;99.90;;;;;;5052403;28;20193;-53
2022/05/02 01:59:17;;;;;;;6.43;5.93;;;8.30;99.90;;;;;;5058136;28;20199;-53
2022/05/02 02:01:44;;;;;;;7.23;5.83;;;8.30;99.90;;;;;;5053352;28;20232;-52
2022/05/02 02:06:52;;;;;;;5.33;4.93;;;8.20;99.90;;;;;;5052264;28;20219;-52
2022/05/02 02:09:19;;;;;;;5.33;5.03;;;8.20;99.90;;;;;;5059816;28;20767;-53
2022/05/02 02:11:46;;;;;;;5.97;5.43;;;8.20;99.90;;;;;;5051982;28;20289;-52
2022/05/02 02:14:16;;;;;;;5.37;4.93;;;8.20;99.90;;;;;;5051853;28;20200;-52
2022/05/02 02:16:43;;;;;;;6.17;5.80;;;8.10;99.90;;;;;;5057154;28;20217;-53
2022/05/02 02:19:10;;;;;;;5.20;4.67;;;8.10;99.90;;;;;;5051277;28;20622;-53
2022/05/02 02:21:37;;;;;;;6.33;5.83;;;8.10;99.90;;;;;;5046958;28;20215;-52
2022/05/02 02:24:05;;;;;;;4.90;4.63;;;8.00;99.90;;;;;;5048573;28;20762;-53
2022/05/02 02:26:32;;;;;;;6.07;5.63;;;8.00;99.90;;;;;;5047644;28;20221;-52
2022/05/02 02:29:00;;;;;;;5.73;5.23;;;8.00;99.90;;;;;;5047523;28;20277;-52
2022/05/02 02:31:29;;;;;;;6.63;6.03;;;8.00;99.90;;;;;;5058005;28;20272;-52
2022/05/02 02:33:56;;;;;;;4.80;4.50;;;8.00;99.90;;;;;;5061187;28;20341;-51
2022/05/02 02:36:23;;;;;;;5.70;5.33;;;7.90;99.90;;;;;;5057962;28;20199;-52
2022/05/02 02:38:50;;;;;;;5.97;5.57;;;7.90;99.90;;;;;;5054851;28;20211;-52
2022/05/02 02:41:17;;;;;;;6.07;5.67;;;8.00;99.90;;;;;;5048576;28;20276;-52
2022/05/02 02:43:44;;;;;;;5.97;5.30;;;8.00;99.90;;;;;;5051193;28;20252;-52
2022/05/02 02:46:11;;;;;;;6.17;5.53;;;7.90;99.90;;;;;;5052661;28;20271;-52
2022/05/02 02:48:39;;;;;;;5.97;5.47;;;7.90;99.90;;;;;;5052737;28;20218;-53
2022/05/02 02:51:06;;;;;;;5.70;5.23;;;7.80;99.90;;;;;;5060338;28;20265;-52
2022/05/02 02:53:33;;;;;;;5.80;5.40;;;7.80;99.90;;;;;;5051372;28;20539;-52
2022/05/02 02:56:00;;;;;;;6.33;5.73;;;7.90;99.90;;;;;;5053825;28;20213;-53
2022/05/02 02:58:27;;;;;;;5.80;5.50;;;7.90;99.90;;;;;;5072683;28;20248;-52
2022/05/02 03:00:54;;;;;;;6.07;5.57;;;7.80;99.90;;;;;;5056555;28;20675;-52
2022/05/02 03:03:21;;;;;;;7.80;5.60;;;7.80;99.90;;;;;;5050108;28;20235;-52
2022/05/02 03:06:04;;;;;;;5.07;4.77;;;7.70;99.90;;;;;;5052731;28;20199;-52
2022/05/02 03:08:34;;;;;;;7.23;5.80;;;7.50;99.90;;;;;;5051796;28;20214;-52
2022/05/02 03:11:01;;;;;;;4.73;4.33;;;7.40;99.90;;;;;;5057642;28;20732;-52
2022/05/02 03:13:28;;;;;;;5.40;5.03;;;7.30;99.90;;;;;;5052457;28;20222;-52
2022/05/02 03:15:55;;;;;;;4.67;4.37;;;7.30;99.90;;;;;;5060598;28;20199;-52
2022/05/02 03:18:22;;;;;;;4.70;4.30;;;7.20;99.90;;;;;;5050610;28;20204;-52
2022/05/02 03:20:51;;;;;;;6.10;5.50;;;7.20;99.90;;;;;;5060732;28;20200;-52
2022/05/02 03:23:18;;;;;;;5.80;5.43;;;7.10;99.90;;;;;;5049965;28;20221;-52
2022/05/02 03:25:45;;;;;;;5.57;5.07;;;7.10;99.90;;;;;;5052064;28;20263;-52
2022/05/02 03:28:12;;;;;;;4.77;4.33;;;7.10;99.90;;;;;;5074077;28;20629;-52
2022/05/02 03:30:39;;;;;;;6.03;5.63;;;7.00;99.90;;;;;;5057863;28;20207;-53
2022/05/02 03:33:06;;;;;;;5.20;4.70;;;7.10;99.90;;;;;;5060963;28;20219;-53
2022/05/02 03:35:33;;;;;;;5.47;4.87;;;7.00;99.90;;;;;;5059313;28;20269;-52
2022/05/02 03:38:02;;;;;;;4.83;4.43;;;6.90;99.90;;;;;;5059208;28;20234;-53
2022/05/02 03:40:29;;;;;;;5.57;5.17;;;6.90;99.90;;;;;;5049390;28;20217;-52
2022/05/02 03:42:56;;;;;;;4.70;4.40;;;6.90;99.90;;;;;;5052563;28;20581;-53
2022/05/02 03:45:23;;;;;;;4.67;4.27;;;6.90;99.90;;;;;;5053083;28;20196;-52
2022/05/02 03:47:50;;;;;;;5.07;4.77;;;6.90;99.90;;;;;;5050338;28;20737;-52
2022/05/02 03:50:17;;;;;;;4.53;4.33;;;6.90;99.90;;;;;;5051355;28;20256;-52
2022/05/02 03:52:45;;;;;;;4.97;4.67;;;6.90;99.90;;;;;;5049469;28;20228;-52
2022/05/02 03:55:13;;;;;;;5.23;4.83;;;6.90;99.90;;;;;;5050285;28;20204;-52
2022/05/02 03:57:40;;;;;;;5.90;5.40;;;6.90;99.90;;;;;;5055384;28;20203;-52
2022/05/02 04:00:08;;;;;;;6.00;5.60;;;6.90;99.90;;;;;;5054293;28;20200;-53
2022/05/02 04:02:35;;;;;;;5.73;5.27;;;6.80;99.90;;;;;;5049837;28;20235;-52
2022/05/02 04:05:03;;;;;;;5.73;5.23;;;6.80;99.90;;;;;;5050836;28;20203;-52
2022/05/02 04:07:30;;;;;;;4.43;4.23;;;6.90;99.90;;;;;;5051887;28;20247;-53
2022/05/02 04:09:56;;;;;;;4.67;4.37;;;6.90;99.90;;;;;;5050888;28;20286;-53
2022/05/02 04:12:25;;;;;;;5.10;4.70;;;6.90;99.90;;;;;;5050842;28;20223;-52
2022/05/02 04:14:52;;;;;;;6.17;5.60;;;6.90;99.90;;;;;;5049917;28;20205;-52
2022/05/02 04:17:19;;;;;;;4.70;4.40;;;6.90;99.90;;;;;;5050608;28;20244;-53
2022/05/02 04:19:46;;;;;;;6.30;5.73;;;6.90;99.90;;;;;;5049760;28;20650;-52
2022/05/02 04:22:13;;;;;;;5.30;4.83;;;6.90;99.90;;;;;;5046445;28;20289;-52
2022/05/02 04:24:40;;;;;;;6.03;5.53;;;6.90;99.90;;;;;;5050819;28;20207;-52
2022/05/02 04:27:07;;;;;;;6.20;5.67;;;7.00;99.90;;;;;;5050479;28;20288;-53
2022/05/02 04:29:35;;;;;;;7.07;6.57;;;7.00;99.90;;;;;;5048628;28;20278;-53
2022/05/02 04:32:03;;;;;;;6.20;5.80;;;7.00;99.90;;;;;;5048763;28;20304;-52
2022/05/02 04:34:29;;;;;;;5.83;5.43;;;7.10;99.90;;;;;;5050397;28;20199;-53
2022/05/02 04:36:56;;;;;;;6.10;5.57;;;7.20;99.90;;;;;;5049987;28;20204;-52
2022/05/02 04:39:23;;;;;;;6.33;5.77;;;7.20;99.90;;;;;;5050854;28;20275;-52
2022/05/02 04:41:51;;;;;;;7.63;6.93;;;7.50;99.90;;;;;;5050039;28;20306;-53
2022/05/02 04:44:17;;;;;;;8.67;7.83;;;7.90;99.90;;;;;;5047362;28;20205;-53
2022/05/02 04:46:46;;;;;;;8.37;7.57;;;8.40;99.90;;;;;;5049426;28;20214;-53
2022/05/02 04:49:13;;;;;;;8.27;7.53;;;8.90;99.90;;;;;;5050344;28;20216;-53
2022/05/02 04:51:42;;;;;;;9.13;8.17;;;9.50;99.90;;;;;;5050618;28;20224;-53
2022/05/02 04:54:09;;;;;;;7.57;6.87;;;10.00;99.90;;;;;;5051168;28;20207;-53
2022/05/02 04:56:36;;;;;;;6.40;5.87;;;10.20;99.90;;;;;;5051306;28;20205;-53
2022/05/02 04:59:03;;;;;;;5.17;4.80;;;10.40;99.90;;;;;;5051162;28;20200;-53
2022/05/02 05:01:30;;;;;;;6.03;5.63;;;10.20;99.90;;;;;;5050395;28;20202;-53
2022/05/02 05:03:58;;;;;;;7.47;6.80;;;9.80;99.90;;;;;;5052701;28;20333;-53
2022/05/02 05:06:25;;;;;;;7.37;6.77;;;10.00;99.90;;;;;;5058596;28;20262;-53
2022/05/02 05:08:52;;;;;;;5.60;5.20;;;10.60;99.90;;;;;;5032819;28;20228;-53
2022/05/02 05:11:31;;;;;;;6.23;5.87;;;11.40;99.90;;;;;;5049015;28;20229;-54
2022/05/02 05:17:06;;;;;;;5.17;4.80;;;12.70;99.90;;;;;;5056347;28;20211;-53
2022/05/02 05:19:55;;;;;;;3.97;3.77;;;13.20;99.90;;;;;;5048616;28;20264;-53
2022/05/02 05:22:30;;;;;;;4.90;4.60;;;13.90;99.90;;;;;;5046917;28;20638;-53
2022/05/02 05:25:20;;;;;;;4.47;4.10;;;14.30;99.90;;;;;;5061213;28;20234;-53
2022/05/02 05:27:53;;;;;;;4.63;4.23;;;14.60;99.90;;;;;;5062203;28;20660;-53
2022/05/02 05:30:21;;;;;;;4.30;4.10;;;15.00;99.90;;;;;;5064601;28;20227;-53
2022/05/02 05:33:01;;;;;;;4.93;4.67;;;15.40;99.90;;;;;;5062219;28;20223;-53
2022/05/02 05:35:41;;;;;;;3.73;3.63;;;15.50;99.90;;;;;;5058022;28;20252;-53
2022/05/02 05:38:12;;;;;;;3.87;3.67;;;15.80;99.90;;;;;;5061791;28;20683;-53
2022/05/02 05:40:42;;;;;;;4.90;4.50;;;16.60;99.90;;;;;;5054927;28;20231;-53
2022/05/02 05:43:37;;;;;;;4.17;3.97;;;16.30;99.90;;;;;;5053727;28;20271;-53
2022/05/02 05:46:28;;;;;;;4.30;4.00;;;16.60;99.90;;;;;;5047373;28;20236;-53
2022/05/02 05:49:10;;;;;;;5.33;4.90;;;16.70;99.90;;;;;;5051108;28;20222;-53
2022/05/02 05:51:49;;;;;;;4.37;4.27;;;16.70;99.90;;;;;;5050700;28;20306;-53
2022/05/02 05:54:38;;;;;;;5.23;4.87;;;17.10;99.90;;;;;;5047314;28;20198;-53
2022/05/02 05:57:18;;;;;;;5.47;5.07;;;18.00;99.90;;;;;;5059094;28;20212;-53
2022/05/02 06:00:00;;;;;;;4.57;4.27;;;17.90;99.90;;;;;;5052787;28;20251;-55
2022/05/02 06:02:36;;;;;;;3.87;3.70;;;18.30;99.90;;;;;;5071821;22;20225;-48
2022/05/02 06:05:04;;;;;;;3.60;3.50;;;18.40;99.90;;;;;;5041016;28;20259;-47
2022/05/02 06:07:34;;;;;;;4.50;4.10;;;19.00;99.90;;;;;;5041094;28;20202;-46
2022/05/02 06:10:05;;;;;;;3.87;3.77;;;19.30;99.90;;;;;;5037609;28;20226;-45
2022/05/02 06:12:32;;;;;;;3.70;3.50;;;19.50;99.90;;;;;;5032475;28;20254;-46
2022/05/02 06:20:38;;;;;;;3.93;3.50;;;19.80;99.90;;;;;;5037310;28;20194;-46
2022/05/02 06:23:09;;;;;;;4.33;4.10;;;20.00;99.90;;;;;;5040140;28;20219;-46
2022/05/02 06:25:38;;;;;;;4.07;3.95;;;20.30;99.90;;;;;;5050388;28;20855;-49
2022/05/02 06:28:06;;;;;;;3.63;3.43;;;20.90;99.90;;;;;;5043094;28;20201;-46
2022/05/02 06:30:37;;;;;;;4.20;4.00;;;20.60;99.90;;;;;;5041295;28;20225;-46
2022/05/02 06:33:12;;;;;;;4.73;4.33;;;20.70;99.90;;;;;;5043583;28;20315;-46
2022/05/02 06:35:54;;;;;;;4.83;4.50;;;20.60;99.90;;;;;;5052432;28;20268;-46
2022/05/02 06:38:34;;;;;;;4.67;4.37;;;20.90;99.90;;;;;;5047518;28;20831;-46
2022/05/02 06:41:08;;;;;;;5.87;5.33;;;20.80;99.90;;;;;;5037945;28;20198;-46
2022/05/02 06:43:41;;;;;;;5.07;4.80;;;21.40;99.90;;;;;;5046084;28;20279;-46
2022/05/02 06:46:17;;;;;;;5.43;5.23;;;21.60;99.90;;;;;;5044713;28;20197;-45
2022/05/02 06:48:49;;;;;;;5.77;5.43;;;21.70;99.90;;;;;;5046626;28;20635;-45
2022/05/02 06:51:21;;;;;;;6.43;5.87;;;21.50;99.90;;;;;;5044187;28;20260;-46
2022/05/02 06:54:27;;;;;;;5.53;5.23;;;22.00;99.90;;;;;;5049011;28;20221;-46
2022/05/02 06:57:03;;;;;;;4.80;4.27;;;21.90;99.50;;;;;;5046832;28;20675;-46
2022/05/02 06:59:45;;;;;;;4.23;4.13;;;22.40;99.70;;;;;;5050009;28;20197;-46
2022/05/02 07:02:39;;;;;;;4.77;4.40;;;20.90;98.00;;;;;;5032569;28;20668;-46
2022/05/02 07:05:11;;;;;;;5.20;4.80;;;20.70;99.60;;;;;;5033003;28;20199;-46
2022/05/02 07:07:56;;;;;;;4.53;4.20;;;21.20;99.90;;;;;;5032969;28;20199;-46
2022/05/02 07:10:25;;;;;;;4.00;3.70;;;21.70;99.50;;;;;;5040553;28;20292;-46
2022/05/02 07:13:03;;;;;;;3.20;3.10;;;22.30;98.90;;;;;;5040691;28;20321;-46
2022/05/02 07:15:41;;;;;;;3.13;3.13;;;22.30;99.10;;;;;;5033113;28;20260;-46
2022/05/02 07:18:14;;;;;;;3.20;3.10;;;21.70;97.10;;;;;;5046960;28;20255;-46
2022/05/02 07:20:55;;;;;;;3.20;3.10;;;22.10;98.40;;;;;;5051609;28;20193;-46
2022/05/02 07:23:49;;;;;;;3.23;3.03;;;22.50;98.20;;;;;;5045811;28;20225;-46
2022/05/02 07:26:18;;;;;;;3.03;2.93;;;22.60;96.70;;;;;;5052510;28;20691;-46
2022/05/02 07:28:48;;;;;;;2.43;2.33;;;22.60;95.00;;;;;;5052556;28;20271;-46
2022/05/02 07:31:19;;;;;;;2.63;2.50;;;22.90;94.00;;;;;;5052239;28;20283;-46
2022/05/02 07:33:48;;;;;;;2.70;2.50;;;23.40;95.50;;;;;;5052086;28;20711;-46
2022/05/02 07:36:17;;;;;;;3.20;3.10;;;23.50;94.60;;;;;;5046466;28;20201;-46
2022/05/02 07:38:47;;;;;;;3.33;3.07;;;23.50;95.30;;;;;;5043401;28;20229;-46
2022/05/02 07:41:25;;;;;;;3.00;2.90;;;23.20;94.20;;;;;;5031516;28;20195;-46
2022/05/02 07:44:00;;;;;;;3.17;3.07;;;23.70;93.50;;;;;;5032310;28;20222;-46
2022/05/02 07:46:31;;;;;;;3.03;2.93;;;24.20;93.00;;;;;;5032270;28;20260;-46
2022/05/02 07:49:00;;;;;;;3.77;3.67;;;24.30;90.00;;;;;;5032433;28;20628;-46
2022/05/02 07:51:28;;;;;;;2.87;2.77;;;24.10;90.60;;;;;;5042942;28;20251;-46
2022/05/02 07:53:57;;;;;;;2.37;2.37;;;24.40;89.00;;;;;;5045379;28;20288;-46
2022/05/02 07:56:28;;;;;;;3.23;2.90;;;24.60;87.90;;;;;;5052009;28;20548;-46
2022/05/02 07:58:57;;;;;;;2.30;2.23;;;24.90;88.80;;;;;;5047352;28;20263;-46
2022/05/02 08:01:25;;;;;;;2.10;2.10;;;24.00;87.50;;;;;;5050400;28;20248;-46
2022/05/02 08:03:54;;;;;;;2.27;2.10;;;24.10;88.50;;;;;;5050520;28;20218;-46
2022/05/02 08:06:44;;;;;;;2.70;2.60;;;23.80;90.00;;;;;;5051005;28;20259;-46
2022/05/02 08:09:24;;;;;;;2.20;2.20;;;24.20;88.10;;;;;;5047092;28;20285;-47
2022/05/02 08:12:01;;;;;;;2.50;2.40;;;24.80;85.30;;;;;;5049872;28;20263;-46
2022/05/02 08:14:41;;;;;;;2.63;2.53;;;25.00;85.00;;;;;;5050595;28;20216;-47
2022/05/02 08:17:18;;;;;;;2.30;2.20;;;25.00;85.40;;;;;;5043753;28;20206;-46
2022/05/02 08:19:56;;;;;;;2.23;2.13;;;25.60;87.20;;;;;;5047218;28;20193;-47
2022/05/02 08:28:09;;;;;;;3.07;2.77;;;24.60;88.60;;;;;;5042953;28;20209;-46
2022/05/02 08:30:44;;;;;;;2.50;2.40;;;24.00;90.60;;;;;;5044460;28;20247;-46
2022/05/02 08:33:19;;;;;;;2.10;2.10;;;24.60;90.50;;;;;;5042593;28;20249;-46
2022/05/02 08:35:56;;;;;;;2.67;2.47;;;24.90;87.50;;;;;;5042252;28;20198;-46
2022/05/02 08:38:46;;;;;;;2.67;2.43;;;25.50;86.30;;;;;;5047534;28;20213;-47
2022/05/02 08:41:58;;;;;;;2.73;2.53;;;25.00;85.80;;;;;;5039662;28;20611;-46
2022/05/02 08:44:57;;;;;;;4.50;4.10;;;25.40;86.30;;;;;;5035858;28;20283;-46
2022/05/02 08:48:06;;;;;;;5.70;5.23;;;24.40;89.60;;;;;;5043387;28;20284;-46
2022/05/02 08:51:00;;;;;;;5.17;4.97;;;23.60;92.80;;;;;;4983633;28;20234;-48
2022/05/02 08:53:51;;;;;;;6.37;5.97;;;23.00;92.60;;;;;;5035202;28;20638;-46
2022/05/02 08:56:50;;;;;;;6.17;5.77;;;22.50;94.20;;;;;;5036502;28;20203;-46
2022/05/02 09:00:00;;;;;;;6.97;6.07;;;23.20;93.50;;;;;;5049302;28;20202;-46
2022/05/02 09:03:12;;;;;;;7.03;6.67;;;23.10;93.80;;;;;;5047740;28;20316;-46
2022/05/02 09:06:03;;;;;;;8.80;8.13;;;22.70;95.40;;;;;;5050110;28;20234;-46
2022/05/02 09:09:18;;;;;;;7.30;6.70;;;22.70;96.00;;;;;;5042585;28;20197;-46
2022/05/02 09:12:05;;;;;;;7.23;6.73;;;22.80;95.40;;;;;;5041976;28;20589;-46
2022/05/02 09:14:58;;;;;;;7.80;7.27;;;23.40;93.60;;;;;;5039458;28;20198;-45
2022/05/02 09:18:01;;;;;;;7.23;6.83;;;23.80;92.80;;;;;;5040728;28;20267;-46
2022/05/02 09:21:00;;;;;;;8.07;7.47;;;23.90;92.90;;;;;;5025600;28;20201;-46
2022/05/02 09:24:10;;;;;;;8.47;7.67;;;23.90;94.80;;;;;;5042958;28;20249;-46
2022/05/02 09:27:12;;;;;;;7.87;7.27;;;24.40;92.80;;;;;;5044520;28;20664;-46
2022/05/02 09:30:19;;;;;;;7.93;7.23;;;25.10;91.20;;;;;;5042271;28;20206;-46
2022/05/02 09:32:48;;;;;;;7.03;6.63;;;24.40;90.60;;;;;;5044575;28;20599;-46
2022/05/02 09:35:19;;;;;;;6.87;6.47;;;23.80;93.90;;;;;;5038611;28;20234;-46
2022/05/02 09:38:04;;;;;;;6.87;6.47;;;23.90;92.30;;;;;;5049042;28;20205;-46
2022/05/02 09:40:38;;;;;;;7.00;6.60;;;24.40;91.10;;;;;;5041976;28;20742;-46
2022/05/02 09:49:33;;;;;;;7.60;7.10;;;24.40;92.90;;;;;;5035361;28;20736;-46
2022/05/02 09:49:48;;;;;;;6.40;5.53;;;22.30;93.00;;;;;;5033997;28;20206;-45
2022/05/02 09:52:16;;;;;;;7.17;6.67;;;22.40;93.30;;;;;;5004362;28;20281;-45
2022/05/02 09:57:59;;;;;;;6.20;5.87;;;23.10;92.20;;;;;;5051698;28;20205;-46
2022/05/02 10:03:25;;;;;;;6.20;5.90;;;23.30;92.50;;;;;;5051177;28;20275;-46
2022/05/02 10:06:04;;;;;;;5.73;5.23;;;23.80;90.20;;;;;;5052292;28;20198;-46
2022/05/02 10:08:44;;;;;;;5.30;5.10;;;24.10;89.20;;;;;;5040810;28;20212;-46
2022/05/02 10:11:32;;;;;;;7.73;7.23;;;24.80;90.00;;;;;;5045626;28;20226;-45
2022/05/02 10:14:18;;;;;;;6.77;6.37;;;25.20;89.80;;;;;;5018201;28;20214;-46
2022/05/02 10:16:51;;;;;;;7.30;6.90;;;24.50;87.60;;;;;;5033168;28;20206;-45
2022/05/02 10:19:26;;;;;;;7.30;7.00;;;22.60;91.20;;;;;;5048499;28;20671;-46
2022/05/02 10:22:23;;;;;;;7.43;6.67;;;22.70;91.90;;;;;;5052189;28;20725;-46
2022/05/02 10:25:01;;;;;;;8.30;7.60;;;22.40;91.90;;;;;;5034667;28;20198;-46
2022/05/02 10:27:35;;;;;;;9.50;8.70;;;22.40;91.90;;;;;;5042299;28;20201;-46
2022/05/02 10:30:08;;;;;;;8.47;7.87;;;22.60;93.10;;;;;;5048924;28;20199;-46
2022/05/02 10:32:51;;;;;;;7.97;7.33;;;22.70;90.50;;;;;;5053093;28;20409;-46
2022/05/02 10:35:19;;;;;;;9.33;8.63;;;23.50;93.50;;;;;;5048718;28;20219;-46
2022/05/02 10:37:56;;;;;;;10.00;9.40;;;23.10;90.00;;;;;;5042819;28;20199;-46
2022/05/02 10:40:31;;;;;;;8.53;7.80;;;22.00;91.70;;;;;;5033680;28;20190;-46
2022/05/02 10:43:05;;;;;;;8.97;8.37;;;22.20;93.70;;;;;;5048151;28;20223;-45
2022/05/02 10:45:35;;;;;;;9.27;8.50;;;21.90;94.00;;;;;;5051338;28;20814;-46
2022/05/02 10:48:24;;;;;;;8.00;7.53;;;21.10;93.20;;;;;;5050720;28;20276;-46
2022/05/02 10:50:59;;;;;;;9.37;8.73;;;21.40;93.50;;;;;;5039068;28;20698;-45
2022/05/02 10:53:52;;;;;;;8.13;7.63;;;20.80;94.10;;;;;;5038007;28;20221;-46
2022/05/02 10:56:22;;;;;;;9.13;8.43;;;20.80;95.00;;;;;;5052550;28;20216;-46
2022/05/02 10:58:54;;;;;;;8.47;7.77;;;21.10;94.20;;;;;;5044311;28;20715;-46
2022/05/02 11:01:58;;;;;;;8.60;8.00;;;21.30;95.00;;;;;;5049279;28;20198;-45
2022/05/02 11:04:39;;;;;;;8.10;7.60;;;20.50;94.20;;;;;;5042320;28;20234;-46
2022/05/02 11:07:09;;;;;;;8.70;7.97;;;20.50;96.90;;;;;;5040751;28;20195;-46
2022/05/02 11:09:44;;;;;;;10.00;9.30;;;21.00;94.80;;;;;;5049114;28;20202;-46
2022/05/02 11:12:15;;;;;;;10.43;9.57;;;20.90;94.40;;;;;;5048699;28;20271;-46
2022/05/02 11:14:55;;;;;;;8.87;8.27;;;20.50;95.50;;;;;;5043560;28;20240;-46
2022/05/02 11:17:27;;;;;;;8.27;7.73;;;20.00;94.10;;;;;;5048788;28;20267;-46
2022/05/02 11:23:11;;;;;;;8.97;8.30;;;20.40;96.20;;;;;;5033671;28;20696;-45
2022/05/02 11:25:50;;;;;;;8.57;7.97;;;20.50;95.00;;;;;;5040692;28;20199;-46
2022/05/02 11:28:24;;;;;;;9.63;8.93;;;20.70;93.70;;;;;;5040193;28;20205;-46
2022/05/02 11:31:02;;;;;;;9.30;8.40;;;21.10;95.40;;;;;;5049436;28;20213;-46
2022/05/02 11:33:38;;;;;;;7.40;6.90;;;21.40;95.60;;;;;;5047551;28;20707;-46
2022/05/02 11:36:10;;;;;;;7.97;7.53;;;21.50;94.00;;;;;;5043928;28;20198;-46
2022/05/02 11:38:42;;;;;;;7.90;7.40;;;21.40;93.30;;;;;;5045566;28;20202;-46
2022/05/02 11:41:14;;;;;;;8.97;8.33;;;21.30;92.90;;;;;;5032148;28;20202;-46
2022/05/02 11:43:43;;;;;;;7.57;7.00;;;21.40;95.00;;;;;;5032183;28;20269;-46
2022/05/02 11:46:18;;;;;;;7.67;7.07;;;21.20;93.40;;;;;;5040324;28;20251;-46
2022/05/02 11:49:11;;;;;;;7.03;6.43;;;21.20;95.50;;;;;;5035193;28;20208;-46
2022/05/02 11:51:45;;;;;;;6.93;6.50;;;21.20;94.90;;;;;;5051797;28;20764;-46
2022/05/02 11:54:26;;;;;;;8.73;7.93;;;20.70;95.20;;;;;;5051899;28;20706;-46
2022/05/02 11:56:56;;;;;;;8.03;7.37;;;20.20;95.80;;;;;;5044044;28;20560;-46
2022/05/02 11:59:24;;;;;;;8.03;7.47;;;19.90;95.20;;;;;;5032350;28;20206;-46
2022/05/02 12:02:03;;;;;;;6.33;6.03;;;19.80;94.80;;;;;;5035236;28;20194;-46
2022/05/02 12:04:32;;;;;;;7.47;6.97;;;20.00;94.30;;;;;;5074234;22;20307;-53
2022/05/02 12:07:05;;;;;;;6.17;5.77;;;20.00;92.90;;;;;;5048881;28;20202;-53
2022/05/02 12:09:34;;;;;;;5.70;5.23;;;20.00;94.70;;;;;;5049347;28;20208;-54
2022/05/02 12:12:07;;;;;;;6.00;5.70;;;19.90;93.90;;;;;;5032228;28;20226;-53
2022/05/02 12:14:35;;;;;;;6.70;6.40;;;19.90;94.00;;;;;;5042294;28;20218;-54
2022/05/02 12:17:09;;;;;;;6.63;6.13;;;19.60;95.10;;;;;;5050475;28;20210;-53
2022/05/02 12:19:37;;;;;;;8.80;8.10;;;19.50;93.70;;;;;;5046563;28;20236;-53
2022/05/02 12:22:05;;;;;;;7.00;6.30;;;19.70;95.50;;;;;;5050979;28;20194;-55
2022/05/02 12:24:36;;;;;;;7.00;6.60;;;19.70;94.90;;;;;;5050002;28;20695;-55
2022/05/02 12:27:08;;;;;;;5.47;5.03;;;19.80;95.80;;;;;;5047860;28;20197;-55
2022/05/02 12:29:37;;;;;;;5.90;5.50;;;20.10;96.30;;;;;;5039258;28;20221;-55
2022/05/02 12:32:07;;;;;;;3.63;3.43;;;20.40;95.80;;;;;;5048224;28;21190;-56
2022/05/02 12:34:39;;;;;;;5.57;5.30;;;20.50;93.50;;;;;;5038648;28;20218;-56
2022/05/02 12:37:09;;;;;;;6.57;5.87;;;20.50;92.70;;;;;;5051119;28;20205;-55
2022/05/02 12:39:46;;;;;;;6.10;5.80;;;20.40;92.80;;;;;;5050865;28;20208;-55
2022/05/02 12:42:15;;;;;;;4.47;4.07;;;20.50;91.30;;;;;;5050729;28;20667;-56
2022/05/02 12:44:45;;;;;;;3.33;3.13;;;20.70;87.60;;;;;;5041780;28;20223;-55
2022/05/02 12:47:19;;;;;;;2.83;2.40;;;20.90;88.20;;;;;;5050723;28;20193;-55
2022/05/02 12:50:06;;;;;;;4.47;4.23;;;21.40;91.50;;;;;;5050906;28;20197;-55
2022/05/02 12:52:34;;;;;;;3.20;3.10;;;21.70;91.30;;;;;;5065393;28;20572;-55
2022/05/02 12:55:02;;;;;;;3.10;3.00;;;21.90;85.20;;;;;;5058668;28;20202;-56
2022/05/02 13:00:32;;;;;;;3.50;3.30;;;22.10;85.20;;;;;;5046697;28;20686;-56
2022/05/02 13:03:16;;;;;;;7.10;6.43;;;21.60;87.30;;;;;;5050030;28;20309;-57
2022/05/02 13:05:51;;;;;;;4.43;4.23;;;21.90;91.00;;;;;;5050962;28;20288;-55
2022/05/02 13:08:20;;;;;;;8.97;8.27;;;21.50;89.70;;;;;;5030922;28;20202;-55
2022/05/02 13:10:52;;;;;;;4.53;4.13;;;21.30;89.40;;;;;;5037564;28;20202;-55
2022/05/02 13:13:19;;;;;;;2.43;2.30;;;21.60;90.60;;;;;;5050315;28;20222;-55
2022/05/02 13:15:47;;;;;;;2.53;2.43;;;21.50;83.00;;;;;;5050670;28;20209;-56
2022/05/02 13:18:18;;;;;;;2.80;2.70;;;21.70;89.70;;;;;;5053684;28;20254;-55
2022/05/02 13:20:59;;;;;;;3.80;3.60;;;21.60;86.40;;;;;;5070627;28;20205;-55
2022/05/02 13:23:37;;;;;;;2.43;2.33;;;21.50;90.20;;;;;;5063522;28;20221;-55
2022/05/02 13:26:50;;;;;;;2.00;2.00;;;21.50;87.00;;;;;;5042207;28;20229;-55
2022/05/02 13:29:44;;;;;;;4.27;4.07;;;21.60;84.10;;;;;;5041096;28;20218;-56
2022/05/02 13:32:16;;;;;;;13.63;8.27;;;21.90;89.30;;;;;;5027080;28;20765;-55
2022/05/02 13:35:10;;;;;;;5.53;5.03;;;21.90;89.20;;;;;;5050415;28;20222;-56
2022/05/02 13:37:51;;;;;;;7.00;6.43;;;21.30;88.20;;;;;;5034448;28;20830;-55
2022/05/02 13:40:21;;;;;;;8.97;7.30;;;21.10;90.70;;;;;;5046773;28;20247;-55
2022/05/02 13:42:57;;;;;;;5.23;4.93;;;21.30;92.20;;;;;;5053771;28;20592;-53
2022/05/02 13:45:35;;;;;;;4.53;4.33;;;21.30;88.30;;;;;;5054325;28;20212;-55
2022/05/02 13:48:15;;;;;;;5.60;5.30;;;21.40;90.20;;;;;;5055702;28;20201;-55
2022/05/02 13:50:51;;;;;;;5.33;5.03;;;21.70;88.70;;;;;;5053896;28;20206;-56
2022/05/02 13:53:28;;;;;;;5.40;4.90;;;21.80;90.30;;;;;;5052943;28;20221;-55
2022/05/02 13:55:59;;;;;;;4.90;4.70;;;21.80;90.90;;;;;;5053000;28;20582;-55
2022/05/02 13:58:52;;;;;;;5.07;4.80;;;21.90;87.50;;;;;;5049621;28;20582;-56